sensor_id;sensor_type;location;lat;lon;timestamp;P1;durP1;ratioP1;P2;durP2;ratioP2
19593;SDS011;9944;48.240;16.478;2024-01-11T00:00:48;28.70;;;13.20;;
19593;SDS011;9944;48.240;16.478;2024-01-11T00:04:52;21.33;;;12.43;;
19593;SDS011;9944;48.240;16.478;2024-01-11T00:08:55;22.60;;;12.13;;
19593;SDS011;9944;48.240;16.478;2024-01-11T00:13:00;20.80;;;11.87;;
19593;SDS011;9944;48.240;16.478;2024-01-11T00:17:03;23.27;;;12.07;;
19593;SDS011;9944;48.240;16.478;2024-01-11T00:21:07;23.10;;;12.33;;
19593;SDS011;9944;48.240;16.478;2024-01-11T00:25:10;25.17;;;13.00;;
19593;SDS011;9944;48.240;16.478;2024-01-11T00:29:15;23.03;;;12.53;;
19593;SDS011;9944;48.240;16.478;2024-01-11T00:33:18;23.70;;;11.97;;
19593;SDS011;9944;48.240;16.478;2024-01-11T00:37:22;20.70;;;13.10;;
19593;SDS011;9944;48.240;16.478;2024-01-11T00:41:26;21.93;;;12.87;;
19593;SDS011;9944;48.240;16.478;2024-01-11T00:45:31;24.10;;;12.40;;
19593;SDS011;9944;48.240;16.478;2024-01-11T00:49:34;23.80;;;12.40;;
19593;SDS011;9944;48.240;16.478;2024-01-11T00:53:38;22.40;;;12.87;;
19593;SDS011;9944;48.240;16.478;2024-01-11T00:57:41;24.67;;;12.70;;
19593;SDS011;9944;48.240;16.478;2024-01-11T01:01:47;21.70;;;11.97;;
19593;SDS011;9944;48.240;16.478;2024-01-11T01:05:51;22.83;;;12.50;;
19593;SDS011;9944;48.240;16.478;2024-01-11T01:09:55;25.77;;;12.60;;
19593;SDS011;9944;48.240;16.478;2024-01-11T01:13:58;26.87;;;12.90;;
19593;SDS011;9944;48.240;16.478;2024-01-11T01:18:03;22.70;;;12.07;;
19593;SDS011;9944;48.240;16.478;2024-01-11T01:22:08;22.93;;;12.37;;
19593;SDS011;9944;48.240;16.478;2024-01-11T01:26:11;24.53;;;12.80;;
19593;SDS011;9944;48.240;16.478;2024-01-11T01:30:14;22.17;;;11.93;;
19593;SDS011;9944;48.240;16.478;2024-01-11T01:34:19;26.27;;;12.70;;
19593;SDS011;9944;48.240;16.478;2024-01-11T01:38:23;26.20;;;13.67;;
19593;SDS011;9944;48.240;16.478;2024-01-11T01:42:26;23.43;;;12.37;;
19593;SDS011;9944;48.240;16.478;2024-01-11T01:46:29;23.97;;;13.30;;
19593;SDS011;9944;48.240;16.478;2024-01-11T01:50:34;22.20;;;12.17;;
19593;SDS011;9944;48.240;16.478;2024-01-11T01:54:38;24.27;;;12.27;;
19593;SDS011;9944;48.240;16.478;2024-01-11T01:58:41;24.03;;;13.87;;
19593;SDS011;9944;48.240;16.478;2024-01-11T02:02:45;25.77;;;13.47;;
19593;SDS011;9944;48.240;16.478;2024-01-11T02:06:55;22.63;;;12.63;;
19593;SDS011;9944;48.240;16.478;2024-01-11T02:11:00;21.13;;;12.63;;
19593;SDS011;9944;48.240;16.478;2024-01-11T02:15:04;22.83;;;12.37;;
19593;SDS011;9944;48.240;16.478;2024-01-11T02:19:08;24.67;;;13.73;;
19593;SDS011;9944;48.240;16.478;2024-01-11T02:23:17;21.90;;;12.70;;
19593;SDS011;9944;48.240;16.478;2024-01-11T02:27:25;30.53;;;13.37;;
19593;SDS011;9944;48.240;16.478;2024-01-11T02:31:28;23.23;;;12.77;;
19593;SDS011;9944;48.240;16.478;2024-01-11T02:35:31;26.10;;;13.47;;
19593;SDS011;9944;48.240;16.478;2024-01-11T02:39:36;24.27;;;12.33;;
19593;SDS011;9944;48.240;16.478;2024-01-11T02:43:41;24.50;;;12.47;;
19593;SDS011;9944;48.240;16.478;2024-01-11T02:47:50;20.57;;;12.13;;
19593;SDS011;9944;48.240;16.478;2024-01-11T02:51:53;22.23;;;13.30;;
19593;SDS011;9944;48.240;16.478;2024-01-11T02:55:57;22.00;;;12.07;;
19593;SDS011;9944;48.240;16.478;2024-01-11T03:00:05;24.33;;;12.10;;
19593;SDS011;9944;48.240;16.478;2024-01-11T03:04:10;21.37;;;12.87;;
19593;SDS011;9944;48.240;16.478;2024-01-11T03:08:13;20.27;;;12.03;;
19593;SDS011;9944;48.240;16.478;2024-01-11T03:12:17;22.63;;;12.43;;
19593;SDS011;9944;48.240;16.478;2024-01-11T03:16:21;22.03;;;12.50;;
19593;SDS011;9944;48.240;16.478;2024-01-11T03:20:24;22.77;;;13.03;;
19593;SDS011;9944;48.240;16.478;2024-01-11T03:24:28;22.00;;;11.97;;
19593;SDS011;9944;48.240;16.478;2024-01-11T03:28:31;23.80;;;11.80;;
19593;SDS011;9944;48.240;16.478;2024-01-11T03:32:36;20.93;;;11.90;;
19593;SDS011;9944;48.240;16.478;2024-01-11T03:36:40;23.87;;;13.33;;
19593;SDS011;9944;48.240;16.478;2024-01-11T03:40:43;19.93;;;11.87;;
19593;SDS011;9944;48.240;16.478;2024-01-11T03:44:47;23.40;;;12.77;;
19593;SDS011;9944;48.240;16.478;2024-01-11T03:48:51;24.17;;;12.50;;
19593;SDS011;9944;48.240;16.478;2024-01-11T03:52:55;25.33;;;13.73;;
19593;SDS011;9944;48.240;16.478;2024-01-11T03:56:58;21.73;;;11.80;;
19593;SDS011;9944;48.240;16.478;2024-01-11T04:01:02;24.03;;;12.83;;
19593;SDS011;9944;48.240;16.478;2024-01-11T04:05:07;25.00;;;12.63;;
19593;SDS011;9944;48.240;16.478;2024-01-11T04:09:11;22.40;;;12.60;;
19593;SDS011;9944;48.240;16.478;2024-01-11T04:13:14;21.47;;;11.30;;
19593;SDS011;9944;48.240;16.478;2024-01-11T04:17:17;22.73;;;11.53;;
19593;SDS011;9944;48.240;16.478;2024-01-11T04:21:22;23.60;;;13.17;;
19593;SDS011;9944;48.240;16.478;2024-01-11T04:25:26;25.90;;;13.23;;
19593;SDS011;9944;48.240;16.478;2024-01-11T04:29:29;24.60;;;12.77;;
19593;SDS011;9944;48.240;16.478;2024-01-11T04:33:34;23.77;;;12.30;;
19593;SDS011;9944;48.240;16.478;2024-01-11T04:37:39;22.87;;;12.37;;
19593;SDS011;9944;48.240;16.478;2024-01-11T04:41:42;22.80;;;12.60;;
19593;SDS011;9944;48.240;16.478;2024-01-11T04:45:45;23.50;;;13.77;;
19593;SDS011;9944;48.240;16.478;2024-01-11T04:49:49;23.30;;;13.00;;
19593;SDS011;9944;48.240;16.478;2024-01-11T04:53:53;22.50;;;13.20;;
19593;SDS011;9944;48.240;16.478;2024-01-11T04:57:57;23.30;;;12.80;;
19593;SDS011;9944;48.240;16.478;2024-01-11T05:02:00;24.97;;;13.00;;
19593;SDS011;9944;48.240;16.478;2024-01-11T05:06:03;24.17;;;13.10;;
19593;SDS011;9944;48.240;16.478;2024-01-11T05:10:08;23.50;;;12.87;;
19593;SDS011;9944;48.240;16.478;2024-01-11T05:14:13;22.97;;;12.77;;
19593;SDS011;9944;48.240;16.478;2024-01-11T05:18:16;20.83;;;12.10;;
19593;SDS011;9944;48.240;16.478;2024-01-11T05:22:19;21.10;;;13.00;;
19593;SDS011;9944;48.240;16.478;2024-01-11T05:26:25;22.33;;;12.60;;
19593;SDS011;9944;48.240;16.478;2024-01-11T05:30:36;23.83;;;13.40;;
19593;SDS011;9944;48.240;16.478;2024-01-11T05:34:41;20.70;;;12.67;;
19593;SDS011;9944;48.240;16.478;2024-01-11T05:38:44;22.90;;;12.93;;
19593;SDS011;9944;48.240;16.478;2024-01-11T05:42:49;25.93;;;13.33;;
19593;SDS011;9944;48.240;16.478;2024-01-11T05:46:52;22.50;;;12.47;;
19593;SDS011;9944;48.240;16.478;2024-01-11T05:50:56;22.90;;;13.47;;
19593;SDS011;9944;48.240;16.478;2024-01-11T05:54:59;22.70;;;12.77;;
19593;SDS011;9944;48.240;16.478;2024-01-11T05:59:04;24.70;;;13.00;;
19593;SDS011;9944;48.240;16.478;2024-01-11T06:03:07;25.60;;;13.30;;
19593;SDS011;9944;48.240;16.478;2024-01-11T06:07:10;22.53;;;12.30;;
19593;SDS011;9944;48.240;16.478;2024-01-11T06:11:13;21.33;;;12.87;;
19593;SDS011;9944;48.240;16.478;2024-01-11T06:15:21;25.67;;;13.50;;
19593;SDS011;9944;48.240;16.478;2024-01-11T06:19:25;25.33;;;12.97;;
19593;SDS011;9944;48.240;16.478;2024-01-11T06:23:28;22.27;;;13.10;;
19593;SDS011;9944;48.240;16.478;2024-01-11T06:27:31;24.03;;;13.10;;
19593;SDS011;9944;48.240;16.478;2024-01-11T06:31:36;25.20;;;13.23;;
19593;SDS011;9944;48.240;16.478;2024-01-11T06:35:39;23.33;;;13.53;;
19593;SDS011;9944;48.240;16.478;2024-01-11T06:39:43;25.53;;;14.33;;
19593;SDS011;9944;48.240;16.478;2024-01-11T06:43:46;20.83;;;12.23;;
19593;SDS011;9944;48.240;16.478;2024-01-11T06:47:50;27.93;;;14.57;;
19593;SDS011;9944;48.240;16.478;2024-01-11T06:51:54;28.23;;;14.67;;
19593;SDS011;9944;48.240;16.478;2024-01-11T06:55:57;25.53;;;12.80;;
19593;SDS011;9944;48.240;16.478;2024-01-11T07:00:01;25.07;;;13.80;;
19593;SDS011;9944;48.240;16.478;2024-01-11T07:04:06;26.10;;;13.73;;
19593;SDS011;9944;48.240;16.478;2024-01-11T07:08:10;26.63;;;14.77;;
19593;SDS011;9944;48.240;16.478;2024-01-11T07:12:13;27.30;;;13.97;;
19593;SDS011;9944;48.240;16.478;2024-01-11T07:16:17;26.97;;;14.43;;
19593;SDS011;9944;48.240;16.478;2024-01-11T07:20:23;28.80;;;14.77;;
19593;SDS011;9944;48.240;16.478;2024-01-11T07:24:26;27.37;;;14.30;;
19593;SDS011;9944;48.240;16.478;2024-01-11T07:28:38;29.37;;;15.87;;
19593;SDS011;9944;48.240;16.478;2024-01-11T07:32:42;27.70;;;15.73;;
19593;SDS011;9944;48.240;16.478;2024-01-11T07:36:46;28.50;;;16.23;;
19593;SDS011;9944;48.240;16.478;2024-01-11T07:40:50;28.27;;;15.13;;
19593;SDS011;9944;48.240;16.478;2024-01-11T07:44:53;29.13;;;15.83;;
19593;SDS011;9944;48.240;16.478;2024-01-11T07:48:56;27.13;;;14.80;;
19593;SDS011;9944;48.240;16.478;2024-01-11T07:53:02;27.53;;;15.57;;
19593;SDS011;9944;48.240;16.478;2024-01-11T07:57:07;27.73;;;14.83;;
19593;SDS011;9944;48.240;16.478;2024-01-11T08:01:10;30.50;;;16.70;;
19593;SDS011;9944;48.240;16.478;2024-01-11T08:05:14;30.13;;;16.07;;
19593;SDS011;9944;48.240;16.478;2024-01-11T08:09:19;30.13;;;16.13;;
19593;SDS011;9944;48.240;16.478;2024-01-11T08:13:22;29.07;;;15.10;;
19593;SDS011;9944;48.240;16.478;2024-01-11T08:17:26;29.87;;;15.23;;
19593;SDS011;9944;48.240;16.478;2024-01-11T08:21:29;29.20;;;15.40;;
19593;SDS011;9944;48.240;16.478;2024-01-11T08:25:34;28.93;;;15.93;;
19593;SDS011;9944;48.240;16.478;2024-01-11T08:29:37;29.23;;;15.63;;
19593;SDS011;9944;48.240;16.478;2024-01-11T08:33:41;28.70;;;16.50;;
19593;SDS011;9944;48.240;16.478;2024-01-11T08:37:45;29.87;;;15.47;;
19593;SDS011;9944;48.240;16.478;2024-01-11T08:41:49;29.50;;;15.77;;
19593;SDS011;9944;48.240;16.478;2024-01-11T08:45:53;27.77;;;16.10;;
19593;SDS011;9944;48.240;16.478;2024-01-11T08:49:57;30.83;;;15.70;;
19593;SDS011;9944;48.240;16.478;2024-01-11T08:54:00;30.70;;;15.83;;
19593;SDS011;9944;48.240;16.478;2024-01-11T08:58:07;30.47;;;16.80;;
19593;SDS011;9944;48.240;16.478;2024-01-11T09:02:11;34.07;;;17.73;;
19593;SDS011;9944;48.240;16.478;2024-01-11T09:06:20;29.67;;;16.33;;
19593;SDS011;9944;48.240;16.478;2024-01-11T09:10:23;30.17;;;16.40;;
19593;SDS011;9944;48.240;16.478;2024-01-11T09:14:28;28.73;;;16.60;;
19593;SDS011;9944;48.240;16.478;2024-01-11T09:18:32;29.67;;;15.43;;
19593;SDS011;9944;48.240;16.478;2024-01-11T09:22:35;27.73;;;14.80;;
19593;SDS011;9944;48.240;16.478;2024-01-11T09:26:39;28.30;;;15.27;;
19593;SDS011;9944;48.240;16.478;2024-01-11T09:30:43;28.43;;;14.73;;
19593;SDS011;9944;48.240;16.478;2024-01-11T09:34:47;30.13;;;16.30;;
19593;SDS011;9944;48.240;16.478;2024-01-11T09:38:52;28.43;;;15.27;;
19593;SDS011;9944;48.240;16.478;2024-01-11T09:42:55;26.87;;;15.27;;
19593;SDS011;9944;48.240;16.478;2024-01-11T09:47:01;29.77;;;16.00;;
19593;SDS011;9944;48.240;16.478;2024-01-11T09:51:06;29.63;;;14.83;;
19593;SDS011;9944;48.240;16.478;2024-01-11T09:55:12;27.97;;;15.13;;
19593;SDS011;9944;48.240;16.478;2024-01-11T09:59:17;31.03;;;15.03;;
19593;SDS011;9944;48.240;16.478;2024-01-11T10:03:25;28.03;;;14.70;;
19593;SDS011;9944;48.240;16.478;2024-01-11T10:07:29;28.83;;;16.03;;
19593;SDS011;9944;48.240;16.478;2024-01-11T10:11:35;28.53;;;15.60;;
19593;SDS011;9944;48.240;16.478;2024-01-11T10:15:39;26.77;;;14.70;;
19593;SDS011;9944;48.240;16.478;2024-01-11T10:19:45;27.77;;;15.23;;
19593;SDS011;9944;48.240;16.478;2024-01-11T10:23:49;25.17;;;13.93;;
19593;SDS011;9944;48.240;16.478;2024-01-11T10:27:52;29.50;;;15.47;;
19593;SDS011;9944;48.240;16.478;2024-01-11T10:31:56;29.80;;;15.10;;
19593;SDS011;9944;48.240;16.478;2024-01-11T10:36:00;24.37;;;14.00;;
19593;SDS011;9944;48.240;16.478;2024-01-11T10:40:05;25.97;;;14.10;;
19593;SDS011;9944;48.240;16.478;2024-01-11T10:44:16;29.67;;;15.30;;
19593;SDS011;9944;48.240;16.478;2024-01-11T10:48:23;24.40;;;14.13;;
19593;SDS011;9944;48.240;16.478;2024-01-11T10:52:33;24.20;;;13.67;;
19593;SDS011;9944;48.240;16.478;2024-01-11T10:56:43;30.67;;;14.70;;
19593;SDS011;9944;48.240;16.478;2024-01-11T11:00:46;26.63;;;14.43;;
19593;SDS011;9944;48.240;16.478;2024-01-11T11:04:52;26.03;;;13.80;;
19593;SDS011;9944;48.240;16.478;2024-01-11T11:08:59;25.37;;;14.93;;
19593;SDS011;9944;48.240;16.478;2024-01-11T11:13:03;28.50;;;13.70;;
19593;SDS011;9944;48.240;16.478;2024-01-11T11:17:08;24.43;;;13.83;;
19593;SDS011;9944;48.240;16.478;2024-01-11T11:21:12;24.03;;;12.93;;
19593;SDS011;9944;48.240;16.478;2024-01-11T11:25:24;28.33;;;14.30;;
19593;SDS011;9944;48.240;16.478;2024-01-11T11:29:28;27.33;;;14.27;;
19593;SDS011;9944;48.240;16.478;2024-01-11T11:33:31;25.83;;;13.70;;
19593;SDS011;9944;48.240;16.478;2024-01-11T11:37:36;27.20;;;14.17;;
19593;SDS011;9944;48.240;16.478;2024-01-11T11:41:40;30.00;;;14.67;;
19593;SDS011;9944;48.240;16.478;2024-01-11T11:45:45;23.07;;;13.27;;
19593;SDS011;9944;48.240;16.478;2024-01-11T11:49:56;24.47;;;13.20;;
19593;SDS011;9944;48.240;16.478;2024-01-11T11:54:11;25.23;;;12.90;;
19593;SDS011;9944;48.240;16.478;2024-01-11T11:58:18;23.47;;;13.23;;
19593;SDS011;9944;48.240;16.478;2024-01-11T12:02:21;25.27;;;13.00;;
19593;SDS011;9944;48.240;16.478;2024-01-11T12:06:26;26.00;;;12.93;;
19593;SDS011;9944;48.240;16.478;2024-01-11T12:10:31;26.37;;;14.43;;
19593;SDS011;9944;48.240;16.478;2024-01-11T12:14:35;27.43;;;13.70;;
19593;SDS011;9944;48.240;16.478;2024-01-11T12:18:39;23.23;;;13.23;;
19593;SDS011;9944;48.240;16.478;2024-01-11T12:22:43;24.73;;;13.10;;
19593;SDS011;9944;48.240;16.478;2024-01-11T12:26:47;23.33;;;13.33;;
19593;SDS011;9944;48.240;16.478;2024-01-11T12:30:55;23.87;;;13.17;;
19593;SDS011;9944;48.240;16.478;2024-01-11T12:34:58;23.53;;;12.53;;
19593;SDS011;9944;48.240;16.478;2024-01-11T12:39:03;27.10;;;12.77;;
19593;SDS011;9944;48.240;16.478;2024-01-11T12:43:07;24.90;;;13.40;;
19593;SDS011;9944;48.240;16.478;2024-01-11T12:47:12;23.43;;;12.53;;
19593;SDS011;9944;48.240;16.478;2024-01-11T12:51:16;24.50;;;12.23;;
19593;SDS011;9944;48.240;16.478;2024-01-11T12:55:23;23.77;;;12.20;;
19593;SDS011;9944;48.240;16.478;2024-01-11T12:59:27;21.40;;;11.37;;
19593;SDS011;9944;48.240;16.478;2024-01-11T13:03:32;21.70;;;11.43;;
19593;SDS011;9944;48.240;16.478;2024-01-11T13:07:36;22.40;;;12.53;;
19593;SDS011;9944;48.240;16.478;2024-01-11T13:11:39;21.33;;;11.33;;
19593;SDS011;9944;48.240;16.478;2024-01-11T13:15:43;22.17;;;11.87;;
19593;SDS011;9944;48.240;16.478;2024-01-11T13:19:48;20.20;;;11.47;;
19593;SDS011;9944;48.240;16.478;2024-01-11T13:23:52;21.57;;;11.80;;
19593;SDS011;9944;48.240;16.478;2024-01-11T13:27:58;21.47;;;12.23;;
19593;SDS011;9944;48.240;16.478;2024-01-11T13:32:22;21.63;;;11.90;;
19593;SDS011;9944;48.240;16.478;2024-01-11T13:36:46;24.17;;;13.07;;
19593;SDS011;9944;48.240;16.478;2024-01-11T13:41:10;23.50;;;12.50;;
19593;SDS011;9944;48.240;16.478;2024-01-11T13:45:33;23.57;;;13.13;;
19593;SDS011;9944;48.240;16.478;2024-01-11T13:49:58;21.93;;;12.73;;
19593;SDS011;9944;48.240;16.478;2024-01-11T13:54:23;22.17;;;12.07;;
19593;SDS011;9944;48.240;16.478;2024-01-11T13:58:46;20.20;;;11.93;;
19593;SDS011;9944;48.240;16.478;2024-01-11T14:03:09;19.37;;;11.03;;
19593;SDS011;9944;48.240;16.478;2024-01-11T14:07:33;19.20;;;10.77;;
19593;SDS011;9944;48.240;16.478;2024-01-11T14:11:57;23.43;;;11.43;;
19593;SDS011;9944;48.240;16.478;2024-01-11T14:16:21;20.67;;;11.07;;
19593;SDS011;9944;48.240;16.478;2024-01-11T14:20:46;18.73;;;10.67;;
19593;SDS011;9944;48.240;16.478;2024-01-11T14:25:11;22.37;;;11.47;;
19593;SDS011;9944;48.240;16.478;2024-01-11T14:29:35;25.30;;;12.10;;
19593;SDS011;9944;48.240;16.478;2024-01-11T14:33:59;19.30;;;10.80;;
19593;SDS011;9944;48.240;16.478;2024-01-11T14:38:22;17.43;;;10.47;;
19593;SDS011;9944;48.240;16.478;2024-01-11T14:42:47;19.90;;;9.87;;
19593;SDS011;9944;48.240;16.478;2024-01-11T14:47:12;19.00;;;9.83;;
19593;SDS011;9944;48.240;16.478;2024-01-11T14:51:37;20.00;;;10.00;;
19593;SDS011;9944;48.240;16.478;2024-01-11T14:56:02;21.43;;;10.93;;
19593;SDS011;9944;48.240;16.478;2024-01-11T15:00:26;19.40;;;10.17;;
19593;SDS011;9944;48.240;16.478;2024-01-11T15:04:50;19.25;;;10.48;;
19593;SDS011;9944;48.240;16.478;2024-01-11T15:09:15;33.90;;;11.27;;
19593;SDS011;9944;48.240;16.478;2024-01-11T15:13:38;21.97;;;9.20;;
19593;SDS011;9944;48.240;16.478;2024-01-11T15:18:02;17.20;;;9.43;;
19593;SDS011;9944;48.240;16.478;2024-01-11T15:22:07;21.30;;;10.60;;
19593;SDS011;9944;48.240;16.478;2024-01-11T15:26:14;21.03;;;10.97;;
19593;SDS011;9944;48.240;16.478;2024-01-11T15:30:36;18.33;;;10.60;;
19593;SDS011;9944;48.240;16.478;2024-01-11T15:35:00;18.50;;;10.30;;
19593;SDS011;9944;48.240;16.478;2024-01-11T15:39:27;19.20;;;10.00;;
19593;SDS011;9944;48.240;16.478;2024-01-11T15:43:52;18.53;;;9.70;;
19593;SDS011;9944;48.240;16.478;2024-01-11T15:49:12;28.27;;;13.07;;
19593;SDS011;9944;48.240;16.478;2024-01-11T15:53:17;25.55;;;11.88;;
19593;SDS011;9944;48.240;16.478;2024-01-11T15:57:20;22.47;;;11.30;;
19593;SDS011;9944;48.240;16.478;2024-01-11T16:01:23;20.00;;;10.83;;
19593;SDS011;9944;48.240;16.478;2024-01-11T16:05:27;22.27;;;11.57;;
19593;SDS011;9944;48.240;16.478;2024-01-11T16:09:31;19.97;;;10.93;;
19593;SDS011;9944;48.240;16.478;2024-01-11T16:13:34;21.60;;;11.17;;
19593;SDS011;9944;48.240;16.478;2024-01-11T16:17:38;20.90;;;11.80;;
19593;SDS011;9944;48.240;16.478;2024-01-11T16:21:42;25.23;;;12.20;;
19593;SDS011;9944;48.240;16.478;2024-01-11T16:25:45;22.07;;;12.30;;
19593;SDS011;9944;48.240;16.478;2024-01-11T16:29:48;19.47;;;10.63;;
19593;SDS011;9944;48.240;16.478;2024-01-11T16:33:52;21.13;;;10.47;;
19593;SDS011;9944;48.240;16.478;2024-01-11T16:37:56;21.63;;;11.00;;
19593;SDS011;9944;48.240;16.478;2024-01-11T16:41:59;21.53;;;10.80;;
19593;SDS011;9944;48.240;16.478;2024-01-11T16:46:02;21.07;;;11.53;;
19593;SDS011;9944;48.240;16.478;2024-01-11T16:50:06;19.53;;;11.07;;
19593;SDS011;9944;48.240;16.478;2024-01-11T16:54:11;21.20;;;10.63;;
19593;SDS011;9944;48.240;16.478;2024-01-11T16:58:17;19.73;;;10.17;;
19593;SDS011;9944;48.240;16.478;2024-01-11T17:02:20;16.30;;;10.07;;
19593;SDS011;9944;48.240;16.478;2024-01-11T17:06:23;21.13;;;11.00;;
19593;SDS011;9944;48.240;16.478;2024-01-11T17:10:28;18.50;;;10.10;;
19593;SDS011;9944;48.240;16.478;2024-01-11T17:14:31;19.83;;;10.63;;
19593;SDS011;9944;48.240;16.478;2024-01-11T17:18:34;18.70;;;10.00;;
19593;SDS011;9944;48.240;16.478;2024-01-11T17:22:38;21.87;;;11.03;;
19593;SDS011;9944;48.240;16.478;2024-01-11T17:26:43;22.23;;;11.40;;
19593;SDS011;9944;48.240;16.478;2024-01-11T17:30:46;16.07;;;10.10;;
19593;SDS011;9944;48.240;16.478;2024-01-11T17:34:50;18.60;;;9.97;;
19593;SDS011;9944;48.240;16.478;2024-01-11T17:38:54;21.93;;;10.73;;
19593;SDS011;9944;48.240;16.478;2024-01-11T17:42:59;20.73;;;10.55;;
19593;SDS011;9944;48.240;16.478;2024-01-11T17:47:03;17.38;;;9.95;;
19593;SDS011;9944;48.240;16.478;2024-01-11T17:51:10;23.50;;;10.67;;
19593;SDS011;9944;48.240;16.478;2024-01-11T17:55:15;15.37;;;9.70;;
19593;SDS011;9944;48.240;16.478;2024-01-11T17:59:19;16.13;;;9.30;;
19593;SDS011;9944;48.240;16.478;2024-01-11T18:03:22;17.67;;;10.23;;
19593;SDS011;9944;48.240;16.478;2024-01-11T18:07:25;17.27;;;9.47;;
19593;SDS011;9944;48.240;16.478;2024-01-11T18:11:29;20.17;;;10.45;;
19593;SDS011;9944;48.240;16.478;2024-01-11T18:15:34;20.27;;;11.27;;
19593;SDS011;9944;48.240;16.478;2024-01-11T18:19:37;19.17;;;10.07;;
19593;SDS011;9944;48.240;16.478;2024-01-11T18:23:40;22.30;;;10.87;;
19593;SDS011;9944;48.240;16.478;2024-01-11T18:27:45;18.90;;;11.10;;
19593;SDS011;9944;48.240;16.478;2024-01-11T18:31:50;17.23;;;9.00;;
19593;SDS011;9944;48.240;16.478;2024-01-11T18:35:54;19.40;;;9.00;;
19593;SDS011;9944;48.240;16.478;2024-01-11T18:39:57;13.03;;;8.33;;
19593;SDS011;9944;48.240;16.478;2024-01-11T18:44:01;17.53;;;9.27;;
19593;SDS011;9944;48.240;16.478;2024-01-11T18:48:06;13.93;;;8.23;;
19593;SDS011;9944;48.240;16.478;2024-01-11T18:52:12;15.03;;;8.60;;
19593;SDS011;9944;48.240;16.478;2024-01-11T18:56:16;15.27;;;8.57;;
19593;SDS011;9944;48.240;16.478;2024-01-11T19:00:20;17.63;;;9.20;;
19593;SDS011;9944;48.240;16.478;2024-01-11T19:04:24;16.70;;;8.67;;
19593;SDS011;9944;48.240;16.478;2024-01-11T19:08:28;18.77;;;9.40;;
19593;SDS011;9944;48.240;16.478;2024-01-11T19:12:31;17.50;;;9.47;;
19593;SDS011;9944;48.240;16.478;2024-01-11T19:16:35;18.40;;;9.20;;
19593;SDS011;9944;48.240;16.478;2024-01-11T19:20:40;18.55;;;9.93;;
19593;SDS011;9944;48.240;16.478;2024-01-11T19:24:44;18.90;;;10.17;;
19593;SDS011;9944;48.240;16.478;2024-01-11T19:28:47;19.43;;;10.53;;
19593;SDS011;9944;48.240;16.478;2024-01-11T19:32:50;18.27;;;9.80;;
19593;SDS011;9944;48.240;16.478;2024-01-11T19:36:55;17.43;;;9.27;;
19593;SDS011;9944;48.240;16.478;2024-01-11T19:41:00;18.60;;;9.80;;
19593;SDS011;9944;48.240;16.478;2024-01-11T19:45:03;19.27;;;9.80;;
19593;SDS011;9944;48.240;16.478;2024-01-11T19:49:07;18.00;;;9.73;;
19593;SDS011;9944;48.240;16.478;2024-01-11T19:53:13;17.70;;;9.70;;
19593;SDS011;9944;48.240;16.478;2024-01-11T19:57:17;16.43;;;8.83;;
19593;SDS011;9944;48.240;16.478;2024-01-11T20:01:20;17.37;;;9.40;;
19593;SDS011;9944;48.240;16.478;2024-01-11T20:05:24;19.17;;;9.80;;
19593;SDS011;9944;48.240;16.478;2024-01-11T20:09:29;19.50;;;9.77;;
19593;SDS011;9944;48.240;16.478;2024-01-11T20:13:34;17.97;;;9.83;;
19593;SDS011;9944;48.240;16.478;2024-01-11T20:17:37;17.08;;;9.60;;
19593;SDS011;9944;48.240;16.478;2024-01-11T20:21:41;18.50;;;9.85;;
19593;SDS011;9944;48.240;16.478;2024-01-11T20:25:47;20.27;;;10.43;;
19593;SDS011;9944;48.240;16.478;2024-01-11T20:29:52;21.37;;;11.17;;
19593;SDS011;9944;48.240;16.478;2024-01-11T20:33:56;17.80;;;9.93;;
19593;SDS011;9944;48.240;16.478;2024-01-11T20:38:04;19.93;;;10.53;;
19593;SDS011;9944;48.240;16.478;2024-01-11T20:42:09;18.67;;;10.00;;
19593;SDS011;9944;48.240;16.478;2024-01-11T20:46:17;19.77;;;11.17;;
19593;SDS011;9944;48.240;16.478;2024-01-11T20:50:22;21.80;;;11.10;;
19593;SDS011;9944;48.240;16.478;2024-01-11T20:54:26;24.23;;;11.93;;
19593;SDS011;9944;48.240;16.478;2024-01-11T20:58:30;21.23;;;11.50;;
19593;SDS011;9944;48.240;16.478;2024-01-11T21:02:34;22.53;;;12.07;;
19593;SDS011;9944;48.240;16.478;2024-01-11T21:06:37;25.83;;;11.80;;
19593;SDS011;9944;48.240;16.478;2024-01-11T21:10:41;25.20;;;12.70;;
19593;SDS011;9944;48.240;16.478;2024-01-11T21:14:45;21.93;;;12.23;;
19593;SDS011;9944;48.240;16.478;2024-01-11T21:18:49;24.90;;;12.40;;
19593;SDS011;9944;48.240;16.478;2024-01-11T21:22:55;24.23;;;12.77;;
19593;SDS011;9944;48.240;16.478;2024-01-11T21:26:58;24.87;;;12.23;;
19593;SDS011;9944;48.240;16.478;2024-01-11T21:31:03;25.93;;;12.67;;
19593;SDS011;9944;48.240;16.478;2024-01-11T21:35:07;23.53;;;12.93;;
19593;SDS011;9944;48.240;16.478;2024-01-11T21:39:12;24.43;;;13.03;;
19593;SDS011;9944;48.240;16.478;2024-01-11T21:43:16;22.53;;;13.10;;
19593;SDS011;9944;48.240;16.478;2024-01-11T21:47:20;25.30;;;13.73;;
19593;SDS011;9944;48.240;16.478;2024-01-11T21:51:24;27.90;;;13.27;;
19593;SDS011;9944;48.240;16.478;2024-01-11T21:55:27;25.67;;;13.23;;
19593;SDS011;9944;48.240;16.478;2024-01-11T21:59:32;23.20;;;12.83;;
19593;SDS011;9944;48.240;16.478;2024-01-11T22:03:37;24.13;;;13.67;;
19593;SDS011;9944;48.240;16.478;2024-01-11T22:07:42;29.03;;;13.63;;
19593;SDS011;9944;48.240;16.478;2024-01-11T22:11:45;23.77;;;13.90;;
19593;SDS011;9944;48.240;16.478;2024-01-11T22:15:49;23.97;;;13.17;;
19593;SDS011;9944;48.240;16.478;2024-01-11T22:19:53;25.97;;;13.47;;
19593;SDS011;9944;48.240;16.478;2024-01-11T22:23:57;30.13;;;13.77;;
19593;SDS011;9944;48.240;16.478;2024-01-11T22:28:00;25.33;;;13.67;;
19593;SDS011;9944;48.240;16.478;2024-01-11T22:32:04;28.00;;;14.40;;
19593;SDS011;9944;48.240;16.478;2024-01-11T22:36:09;27.47;;;14.27;;
19593;SDS011;9944;48.240;16.478;2024-01-11T22:40:13;24.63;;;14.40;;
19593;SDS011;9944;48.240;16.478;2024-01-11T22:44:16;28.60;;;14.47;;
19593;SDS011;9944;48.240;16.478;2024-01-11T22:48:20;23.07;;;12.67;;
19593;SDS011;9944;48.240;16.478;2024-01-11T22:52:25;25.17;;;13.63;;
19593;SDS011;9944;48.240;16.478;2024-01-11T22:56:28;25.70;;;14.13;;
19593;SDS011;9944;48.240;16.478;2024-01-11T23:00:33;26.83;;;14.73;;
19593;SDS011;9944;48.240;16.478;2024-01-11T23:04:37;30.40;;;14.73;;
19593;SDS011;9944;48.240;16.478;2024-01-11T23:08:42;27.70;;;14.07;;
19593;SDS011;9944;48.240;16.478;2024-01-11T23:12:45;27.40;;;14.07;;
19593;SDS011;9944;48.240;16.478;2024-01-11T23:16:49;25.47;;;13.77;;
19593;SDS011;9944;48.240;16.478;2024-01-11T23:20:52;25.03;;;13.97;;
19593;SDS011;9944;48.240;16.478;2024-01-11T23:24:56;30.10;;;14.07;;
19593;SDS011;9944;48.240;16.478;2024-01-11T23:29:00;27.77;;;14.90;;
19593;SDS011;9944;48.240;16.478;2024-01-11T23:33:04;26.50;;;13.57;;
19593;SDS011;9944;48.240;16.478;2024-01-11T23:37:12;27.03;;;14.40;;
19593;SDS011;9944;48.240;16.478;2024-01-11T23:41:16;26.37;;;13.83;;
19593;SDS011;9944;48.240;16.478;2024-01-11T23:45:20;31.57;;;15.13;;
19593;SDS011;9944;48.240;16.478;2024-01-11T23:49:23;28.73;;;14.97;;
19593;SDS011;9944;48.240;16.478;2024-01-11T23:53:27;27.57;;;14.90;;
19593;SDS011;9944;48.240;16.478;2024-01-11T23:57:31;30.23;;;14.23;;
